createdAt,value
2022-10-04T00:00:28.734Z,98.27
2022-10-04T00:02:34.488Z,98.16
2022-10-04T00:04:43.946Z,97.72
2022-10-04T00:06:50.028Z,98.47
2022-10-04T00:08:56.287Z,98.37
2022-10-04T00:11:05.132Z,97.55
2022-10-04T00:13:16.319Z,97.71
2022-10-04T00:15:21.787Z,97.54
2022-10-04T00:17:27.876Z,97.29
2022-10-04T00:19:43.338Z,97.63
2022-10-04T00:22:12.619Z,98.33
2022-10-04T00:24:22.113Z,97.63
2022-10-04T00:27:09.175Z,97.48
2022-10-04T00:29:31.967Z,98.40
2022-10-04T00:31:35.000Z,98.18
2022-10-04T00:33:39.787Z,98.55
2022-10-04T00:35:50.751Z,98.31
2022-10-04T00:37:58.442Z,98.73
2022-10-04T00:40:12.404Z,99.03
2022-10-04T00:42:50.841Z,98.65
2022-10-04T00:44:58.102Z,98.24
2022-10-04T00:47:02.604Z,99.04
2022-10-04T00:49:08.634Z,98.63
2022-10-04T00:51:16.220Z,98.58
2022-10-04T00:53:31.178Z,98.16
2022-10-04T00:55:37.584Z,98.08
2022-10-04T00:57:43.015Z,98.53
2022-10-04T00:59:47.958Z,99.30
2022-10-04T01:01:54.082Z,99.19
2022-10-04T01:03:58.864Z,99.32
2022-10-04T01:06:05.979Z,98.51
2022-10-04T01:08:12.020Z,98.39
2022-10-04T01:10:19.737Z,98.07
2022-10-04T01:12:39.906Z,97.83
2022-10-04T01:14:49.111Z,97.82
2022-10-04T01:16:52.781Z,96.89
2022-10-04T01:18:56.190Z,96.79
2022-10-04T01:21:01.741Z,96.58
2022-10-04T01:23:06.452Z,96.60
2022-10-04T01:25:09.737Z,96.37
2022-10-04T01:27:38.564Z,96.11
2022-10-04T01:29:41.558Z,96.11
2022-10-04T01:31:46.575Z,96.44
2022-10-04T01:33:51.325Z,96.98
2022-10-04T01:35:54.315Z,96.78
2022-10-04T01:37:57.321Z,97.02
2022-10-04T01:40:02.269Z,96.60
2022-10-04T01:42:08.531Z,96.80
2022-10-04T01:44:14.282Z,96.35
2022-10-04T01:46:21.576Z,96.41
2022-10-04T01:48:26.616Z,97.78
2022-10-04T01:50:31.367Z,97.89
2022-10-04T01:52:36.951Z,97.35
2022-10-04T01:54:42.837Z,97.89
2022-10-04T01:56:49.402Z,97.59
2022-10-04T01:58:54.076Z,97.14
2022-10-04T02:01:01.045Z,96.89
2022-10-04T02:03:06.202Z,97.80
2022-10-04T02:05:12.232Z,97.97
2022-10-04T02:07:16.910Z,98.85
2022-10-04T02:09:21.135Z,97.54
2022-10-04T02:11:26.532Z,98.47
2022-10-04T02:13:41.789Z,98.53
2022-10-04T02:15:44.885Z,99.42
2022-10-04T02:17:48.762Z,99.43
2022-10-04T02:19:52.155Z,98.55
2022-10-04T02:21:56.733Z,97.97
2022-10-04T02:23:59.743Z,98.09
2022-10-04T02:26:05.768Z,98.80
2022-10-04T02:28:11.722Z,99.31
2022-10-04T02:30:16.166Z,99.41
2022-10-04T02:32:36.729Z,99.67
2022-10-04T02:34:40.767Z,98.39
2022-10-04T02:36:43.746Z,98.87
2022-10-04T02:38:52.636Z,99.05
2022-10-04T02:40:58.619Z,98.80
2022-10-04T02:43:04.433Z,99.93
2022-10-04T02:45:13.685Z,99.47
2022-10-04T02:47:20.491Z,99.84
2022-10-04T02:49:29.854Z,99.89
2022-10-04T02:51:35.150Z,98.99
2022-10-04T02:53:43.346Z,99.33
2022-10-04T02:55:47.581Z,99.71
2022-10-04T02:57:52.420Z,99.15
2022-10-04T03:00:08.359Z,98.89
2022-10-04T03:02:29.499Z,99.03
2022-10-04T03:04:34.829Z,98.69
2022-10-04T03:06:37.814Z,97.29
2022-10-04T03:08:47.444Z,97.43
2022-10-04T03:10:50.756Z,97.18
2022-10-04T03:12:54.108Z,98.11
2022-10-04T03:14:57.131Z,97.31
2022-10-04T03:17:03.942Z,96.86
2022-10-04T03:19:08.831Z,96.73
2022-10-04T03:21:14.554Z,98.30
2022-10-04T03:23:18.807Z,97.00
2022-10-04T03:25:23.935Z,97.06
2022-10-04T03:27:33.117Z,98.42
2022-10-04T03:29:36.429Z,98.23
2022-10-04T03:31:42.146Z,98.23
2022-10-04T03:33:45.576Z,97.62
2022-10-04T03:35:51.750Z,98.00
2022-10-04T03:37:54.728Z,98.79
2022-10-04T03:39:58.303Z,97.10
2022-10-04T03:42:04.671Z,99.11
2022-10-04T03:44:09.059Z,98.31
2022-10-04T03:46:13.283Z,98.47
2022-10-04T03:48:30.194Z,99.24
2022-10-04T03:50:36.414Z,99.55
2022-10-04T03:52:51.147Z,98.15
2022-10-04T03:54:55.898Z,98.11
2022-10-04T03:56:59.811Z,98.25
2022-10-04T03:59:04.143Z,99.15
2022-10-04T04:01:15.138Z,98.32
2022-10-04T04:03:20.910Z,99.46
2022-10-04T04:05:26.837Z,98.45
2022-10-04T04:07:31.364Z,98.14
2022-10-04T04:09:40.697Z,99.70
2022-10-04T04:11:44.275Z,98.14
2022-10-04T04:13:50.806Z,98.41
2022-10-04T04:15:55.685Z,98.22
2022-10-04T04:18:01.385Z,98.55
2022-10-04T04:20:07.837Z,97.30
2022-10-04T04:22:15.971Z,96.92
2022-10-04T04:24:23.742Z,97.67
2022-10-04T04:26:34.916Z,96.26
2022-10-04T04:28:41.485Z,98.10
2022-10-04T04:30:46.452Z,98.26
2022-10-04T04:32:51.310Z,97.45
2022-10-04T04:34:55.180Z,98.47
2022-10-04T04:36:59.925Z,98.73
2022-10-04T04:39:42.755Z,98.39
2022-10-04T04:41:50.539Z,97.99
2022-10-04T04:43:54.030Z,98.76
2022-10-04T04:46:22.420Z,97.70
2022-10-04T04:48:22.807Z,97.23
2022-10-04T04:50:27.966Z,98.18
2022-10-04T04:52:32.695Z,99.27
2022-10-04T04:54:35.735Z,98.34
2022-10-04T04:56:38.768Z,98.20
2022-10-04T04:58:46.051Z,98.74
2022-10-04T05:00:54.604Z,97.76
2022-10-04T05:02:59.123Z,98.94
2022-10-04T05:05:22.400Z,97.48
2022-10-04T05:07:25.503Z,97.49
2022-10-04T05:09:31.323Z,99.01
2022-10-04T05:11:36.236Z,98.65
2022-10-04T05:13:44.071Z,99.18
2022-10-04T05:15:47.684Z,98.72
2022-10-04T05:17:50.728Z,99.33
2022-10-04T05:19:54.686Z,98.69
2022-10-04T05:21:58.990Z,99.26
2022-10-04T05:24:10.851Z,98.71
2022-10-04T05:26:15.412Z,98.59
2022-10-04T05:28:19.215Z,99.58
2022-10-04T05:30:45.380Z,99.19
2022-10-04T05:32:54.815Z,98.24
2022-10-04T05:34:59.460Z,98.91
2022-10-04T05:37:22.248Z,99.13
2022-10-04T05:39:28.652Z,99.18
2022-10-04T05:41:35.981Z,98.85
2022-10-04T05:43:46.785Z,97.03
2022-10-04T05:46:12.290Z,97.36
2022-10-04T05:48:15.380Z,98.00
2022-10-04T05:50:21.142Z,97.69
2022-10-04T05:52:30.495Z,96.64
2022-10-04T05:54:37.873Z,96.57
2022-10-04T05:57:19.194Z,96.11
2022-10-04T05:59:42.167Z,95.11
2022-10-04T06:01:53.997Z,95.01
2022-10-04T06:04:09.874Z,96.79
2022-10-04T06:06:17.571Z,96.42
2022-10-04T06:08:30.320Z,98.16
2022-10-04T06:10:53.346Z,98.49
2022-10-04T06:13:00.396Z,97.58
2022-10-04T06:15:27.011Z,97.86
2022-10-04T06:17:50.294Z,97.47
2022-10-04T06:20:15.340Z,96.58
2022-10-04T06:22:19.440Z,97.47
2022-10-04T06:24:27.078Z,95.70
2022-10-04T06:26:35.585Z,96.32
2022-10-04T06:28:41.904Z,96.16
2022-10-04T06:30:56.139Z,96.74
2022-10-04T06:33:09.963Z,97.56
2022-10-04T06:35:36.703Z,96.46
2022-10-04T06:38:14.747Z,97.21
2022-10-04T06:40:50.368Z,97.70
2022-10-04T06:43:04.199Z,96.57
2022-10-04T06:45:21.972Z,97.37
2022-10-04T06:47:39.166Z,96.94
2022-10-04T06:49:47.372Z,97.34
2022-10-04T06:52:17.402Z,98.33
2022-10-04T06:54:35.216Z,98.36
2022-10-04T06:56:55.958Z,98.56
2022-10-04T06:59:19.429Z,98.24
2022-10-04T07:01:28.646Z,98.27
2022-10-04T07:03:37.963Z,98.17
2022-10-04T07:05:46.367Z,98.26
2022-10-04T07:08:06.390Z,98.38
2022-10-04T07:10:32.250Z,98.06
2022-10-04T07:12:36.424Z,97.51
2022-10-04T07:14:44.545Z,98.20
2022-10-04T07:16:49.581Z,99.21
2022-10-04T07:18:58.980Z,98.31
2022-10-04T07:21:06.963Z,98.20
2022-10-04T07:23:15.627Z,98.35
2022-10-04T07:25:22.586Z,97.69
2022-10-04T07:27:30.162Z,98.14
2022-10-04T07:29:38.741Z,98.85
2022-10-04T07:31:45.772Z,98.66
2022-10-04T07:33:51.563Z,98.60
2022-10-04T07:36:00.437Z,99.58
2022-10-04T07:38:11.612Z,98.90
2022-10-04T07:40:22.294Z,99.04
2022-10-04T07:42:30.845Z,98.30
2022-10-04T07:44:36.516Z,97.90
2022-10-04T07:46:46.080Z,99.12
2022-10-04T07:48:49.568Z,98.39
2022-10-04T07:51:03.324Z,98.42
2022-10-04T07:53:10.149Z,98.17
2022-10-04T07:55:20.241Z,99.75
2022-10-04T07:57:27.090Z,99.49
2022-10-04T07:59:39.246Z,99.03
2022-10-04T08:01:47.392Z,97.67
2022-10-04T08:04:01.575Z,96.89
2022-10-04T08:06:11.474Z,98.64
2022-10-04T08:08:27.191Z,98.72
2022-10-04T08:10:34.046Z,98.13
2022-10-04T08:12:47.680Z,98.62
2022-10-04T08:14:56.760Z,99.50
2022-10-04T08:17:15.437Z,97.35
2022-10-04T08:19:33.307Z,96.62
2022-10-04T08:21:42.614Z,96.37
2022-10-04T08:23:56.976Z,97.50
2022-10-04T08:26:08.881Z,99.64
2022-10-04T08:28:39.028Z,96.99
2022-10-04T08:30:53.779Z,95.73
2022-10-04T08:33:06.302Z,95.54
2022-10-04T08:35:46.699Z,94.97
2022-10-04T08:38:00.582Z,95.50
2022-10-04T08:40:44.112Z,94.50
2022-10-04T08:43:09.322Z,95.98
2022-10-04T08:45:54.089Z,95.18
2022-10-04T08:48:40.055Z,95.07
2022-10-04T08:51:03.729Z,95.65
2022-10-04T08:53:33.360Z,95.84
2022-10-04T08:55:48.630Z,93.91
2022-10-04T08:58:15.252Z,93.12
2022-10-04T09:00:22.077Z,91.10
2022-10-04T09:02:41.639Z,92.29
2022-10-04T09:04:58.628Z,91.11
2022-10-04T09:07:29.628Z,89.52
2022-10-04T09:10:06.750Z,90.49
2022-10-04T09:12:44.239Z,87.66
2022-10-04T09:15:03.072Z,90.19
2022-10-04T09:17:22.263Z,87.97
2022-10-04T09:19:38.565Z,88.00
2022-10-04T09:21:50.741Z,87.08
2022-10-04T09:24:22.896Z,87.29
2022-10-04T09:26:33.170Z,86.95
2022-10-04T09:29:05.145Z,88.39
2022-10-04T09:31:23.285Z,87.00
2022-10-04T09:33:44.455Z,85.88
2022-10-04T09:36:11.069Z,84.41
2022-10-04T09:38:48.652Z,81.94
2022-10-04T09:41:22.546Z,83.40
2022-10-04T09:43:45.802Z,83.39
2022-10-04T09:46:00.678Z,83.60
2022-10-04T09:48:25.155Z,80.93
2022-10-04T09:50:42.846Z,81.16
2022-10-04T09:52:52.124Z,83.57
2022-10-04T09:55:08.470Z,81.43
2022-10-04T09:57:30.212Z,79.25
2022-10-04T09:59:53.917Z,78.52
2022-10-04T10:02:29.507Z,79.53
2022-10-04T10:04:44.533Z,80.79
2022-10-04T10:06:56.567Z,78.86
2022-10-04T10:09:09.158Z,79.84
2022-10-04T10:11:34.750Z,77.92
2022-10-04T10:14:06.594Z,76.78
2022-10-04T10:16:42.016Z,75.91
2022-10-04T10:18:53.637Z,75.62
2022-10-04T10:21:12.747Z,74.48
2022-10-04T10:23:30.358Z,75.48
2022-10-04T10:25:47.794Z,74.36
2022-10-04T10:27:58.603Z,74.12
2022-10-04T10:30:12.514Z,74.67
2022-10-04T10:32:34.563Z,74.48
2022-10-04T10:35:01.771Z,75.38
2022-10-04T10:37:15.918Z,76.67
2022-10-04T10:40:03.451Z,75.85
2022-10-04T10:42:13.158Z,74.41
2022-10-04T10:44:26.785Z,76.05
2022-10-04T10:46:44.080Z,72.71
2022-10-04T10:49:06.016Z,74.41
2022-10-04T10:51:15.177Z,74.72
2022-10-04T10:53:48.133Z,73.08
2022-10-04T10:56:20.502Z,75.07
2022-10-04T10:59:01.651Z,73.35
2022-10-04T11:01:32.538Z,73.34
2022-10-04T11:03:59.578Z,74.41
2022-10-04T11:06:20.446Z,73.36
2022-10-04T11:08:46.476Z,73.37
2022-10-04T11:11:13.545Z,73.72
2022-10-04T11:13:41.543Z,74.45
2022-10-04T11:16:07.207Z,73.26
2022-10-04T11:18:34.641Z,74.45
2022-10-04T11:21:05.681Z,74.85
2022-10-04T11:23:45.825Z,73.95
2022-10-04T11:25:59.642Z,73.16
2022-10-04T11:28:06.166Z,73.60
2022-10-04T11:30:16.820Z,73.81
2022-10-04T11:32:45.543Z,72.61
2022-10-04T11:35:21.830Z,74.32
2022-10-04T11:37:43.566Z,73.51
2022-10-04T11:40:05.593Z,72.83
2022-10-04T11:42:19.215Z,70.05
2022-10-04T11:44:43.583Z,71.87
2022-10-04T11:46:51.595Z,72.85
2022-10-04T11:49:04.631Z,72.44
2022-10-04T11:51:45.271Z,71.55
2022-10-04T11:54:30.189Z,71.27
2022-10-04T11:57:00.031Z,70.71
2022-10-04T11:59:20.298Z,70.71
2022-10-04T12:01:43.860Z,72.22
2022-10-04T12:04:03.971Z,70.22
2022-10-04T12:06:18.281Z,71.45
2022-10-04T12:08:31.019Z,70.03
2022-10-04T12:10:37.604Z,69.88
2022-10-04T12:13:05.473Z,68.90
2022-10-04T12:15:28.030Z,69.80
2022-10-04T12:17:56.550Z,69.74
2022-10-04T12:20:16.264Z,69.60
2022-10-04T12:22:29.050Z,70.51
2022-10-04T12:24:49.791Z,69.67
2022-10-04T12:27:18.730Z,71.32
2022-10-04T12:30:06.661Z,70.17
2022-10-04T12:32:15.448Z,71.31
2022-10-04T12:34:24.648Z,70.06
2022-10-04T12:36:36.889Z,68.76
2022-10-04T12:39:14.863Z,69.45
2022-10-04T12:41:29.576Z,70.52
2022-10-04T12:43:40.133Z,69.64
2022-10-04T12:45:52.757Z,67.10
2022-10-04T12:48:06.991Z,69.35
2022-10-04T12:50:18.721Z,72.09
2022-10-04T12:52:24.568Z,70.92
2022-10-04T12:54:34.411Z,69.27
2022-10-04T12:56:47.530Z,69.64
2022-10-04T12:59:01.616Z,69.21
2022-10-04T13:01:13.364Z,68.73
2022-10-04T13:03:26.970Z,67.22
2022-10-04T13:05:35.372Z,68.19
2022-10-04T13:07:51.266Z,68.92
2022-10-04T13:10:26.496Z,67.38
2022-10-04T13:12:38.524Z,68.93
2022-10-04T13:14:49.329Z,67.94
2022-10-04T13:19:23.858Z,68.12
2022-10-04T13:22:03.494Z,68.41
2022-10-04T13:24:14.133Z,67.52
2022-10-04T13:26:30.055Z,67.36
2022-10-04T13:28:39.123Z,67.87
2022-10-04T13:30:48.645Z,67.77
2022-10-04T13:33:00.097Z,68.73
2022-10-04T13:35:12.592Z,67.98
2022-10-04T13:37:30.090Z,72.08
2022-10-04T13:39:44.951Z,70.73
2022-10-04T13:42:12.329Z,68.75
2022-10-04T13:44:34.184Z,67.16
2022-10-04T13:46:41.286Z,67.90
2022-10-04T13:48:55.429Z,68.24
2022-10-04T13:51:19.316Z,66.61
2022-10-04T13:53:53.772Z,67.76
2022-10-04T13:56:19.111Z,67.42
2022-10-04T13:58:32.784Z,66.67
2022-10-04T14:00:51.509Z,67.19
2022-10-04T14:03:04.839Z,66.40
2022-10-04T14:05:52.390Z,64.36
2022-10-04T14:08:10.547Z,65.65
2022-10-04T14:10:45.865Z,64.87
2022-10-04T14:13:06.068Z,63.44
2022-10-04T14:15:30.811Z,63.94
2022-10-04T14:17:56.190Z,64.20
2022-10-04T14:20:25.857Z,64.58
2022-10-04T14:23:04.188Z,64.91
2022-10-04T14:25:35.706Z,65.08
2022-10-04T14:28:15.543Z,64.79
2022-10-04T14:30:21.316Z,66.60
2022-10-04T14:32:49.967Z,66.81
2022-10-04T14:34:58.168Z,66.07
2022-10-04T14:37:15.042Z,67.63
2022-10-04T14:40:02.978Z,65.66
2022-10-04T14:42:32.346Z,64.65
2022-10-04T14:44:56.325Z,66.57
2022-10-04T14:47:16.098Z,67.05
2022-10-04T14:49:24.525Z,66.68
2022-10-04T14:51:41.682Z,66.37
2022-10-04T14:53:53.628Z,67.86
2022-10-04T14:56:26.184Z,67.14
2022-10-04T14:58:38.368Z,66.45
2022-10-04T15:01:02.929Z,67.98
2022-10-04T15:03:28.855Z,66.87
2022-10-04T15:05:44.327Z,67.44
2022-10-04T15:07:49.959Z,67.45
2022-10-04T15:09:55.984Z,67.45
2022-10-04T15:12:27.131Z,66.68
2022-10-04T15:14:38.233Z,66.43
2022-10-04T15:16:47.585Z,65.19
2022-10-04T15:18:54.727Z,66.22
2022-10-04T15:21:01.053Z,65.95
2022-10-04T15:23:17.702Z,66.42
2022-10-04T15:25:41.751Z,65.23
2022-10-04T15:27:53.721Z,66.89
2022-10-04T15:30:09.356Z,66.83
2022-10-04T15:32:24.219Z,66.74
2022-10-04T15:34:33.383Z,66.27
2022-10-04T15:36:48.258Z,67.61
2022-10-04T15:38:57.169Z,67.80
2022-10-04T15:41:03.528Z,68.93
2022-10-04T15:43:19.898Z,69.14
2022-10-04T15:45:36.436Z,69.57
2022-10-04T15:47:55.917Z,69.30
2022-10-04T15:50:07.592Z,69.02
2022-10-04T15:52:41.791Z,69.72
2022-10-04T15:55:03.488Z,69.81
2022-10-04T15:57:19.391Z,69.54
2022-10-04T15:59:36.677Z,69.09
2022-10-04T16:01:55.971Z,69.20
2022-10-04T16:04:21.787Z,69.59
2022-10-04T16:06:26.982Z,69.50
2022-10-04T16:08:48.572Z,69.69
2022-10-04T16:11:07.740Z,70.10
2022-10-04T16:13:27.554Z,71.64
2022-10-04T16:15:32.887Z,71.64
2022-10-04T16:18:12.294Z,71.46
2022-10-04T16:20:33.425Z,71.46
2022-10-04T16:22:38.174Z,71.93
2022-10-04T16:24:45.519Z,72.06
2022-10-04T16:27:20.383Z,72.01
2022-10-04T16:29:29.959Z,73.71
2022-10-04T16:31:43.818Z,73.97
2022-10-04T16:33:56.318Z,74.95
2022-10-04T16:36:21.650Z,75.70
2022-10-04T16:38:26.244Z,75.67
2022-10-04T16:40:35.551Z,76.39
2022-10-04T16:42:49.903Z,76.54
2022-10-04T16:44:56.534Z,76.72
2022-10-04T16:47:03.088Z,77.23
2022-10-04T16:49:20.011Z,77.86
2022-10-04T16:51:48.699Z,78.21
2022-10-04T16:53:54.596Z,77.96
2022-10-04T16:56:02.308Z,78.17
2022-10-04T16:58:50.417Z,78.35
2022-10-04T17:01:34.099Z,77.74
2022-10-04T17:03:37.854Z,77.67
2022-10-04T17:05:54.333Z,78.62
2022-10-04T17:08:21.690Z,78.60
2022-10-04T17:10:34.155Z,80.61
2022-10-04T17:12:45.602Z,80.43
2022-10-04T17:14:58.627Z,81.93
2022-10-04T17:17:03.390Z,82.53
2022-10-04T17:19:20.748Z,84.00
2022-10-04T17:21:29.533Z,84.44
2022-10-04T17:24:03.396Z,84.64
2022-10-04T17:26:14.135Z,84.75
2022-10-04T17:28:26.175Z,84.90
2022-10-04T17:30:31.810Z,85.14
2022-10-04T17:32:45.831Z,87.41
2022-10-04T17:34:58.505Z,86.46
2022-10-04T17:37:06.657Z,87.24
2022-10-04T17:39:33.024Z,88.23
2022-10-04T17:41:50.302Z,87.33
2022-10-04T17:44:17.516Z,87.71
2022-10-04T17:46:23.768Z,88.38
2022-10-04T17:48:47.272Z,87.37
2022-10-04T17:51:13.932Z,85.71
2022-10-04T17:53:39.898Z,85.17
2022-10-04T17:55:47.957Z,85.03
2022-10-04T17:57:54.352Z,85.15
2022-10-04T18:00:08.324Z,85.92
2022-10-04T18:02:13.377Z,86.63
2022-10-04T18:04:20.001Z,85.72
2022-10-04T18:06:30.337Z,86.89
2022-10-04T18:08:43.194Z,87.51
2022-10-04T18:10:51.385Z,87.00
2022-10-04T18:12:59.665Z,87.72
2022-10-04T18:15:07.929Z,89.17
2022-10-04T18:17:15.556Z,90.54
2022-10-04T18:19:37.087Z,89.05
2022-10-04T18:21:49.861Z,90.35
2022-10-04T18:23:55.713Z,89.80
2022-10-04T18:26:03.649Z,91.11
2022-10-04T18:28:15.247Z,91.34
2022-10-04T18:30:21.553Z,91.55
2022-10-04T18:32:36.108Z,92.14
2022-10-04T18:34:40.263Z,91.77
2022-10-04T18:36:54.531Z,91.79
2022-10-04T18:39:17.783Z,91.44
2022-10-04T18:41:23.236Z,90.90
2022-10-04T18:43:29.638Z,91.67
2022-10-04T18:45:33.810Z,91.89
2022-10-04T18:47:39.113Z,92.27
2022-10-04T18:49:48.295Z,92.53
2022-10-04T18:52:03.091Z,91.81
2022-10-04T18:54:13.666Z,92.58
2022-10-04T18:56:17.778Z,91.60
2022-10-04T18:58:50.290Z,92.38
2022-10-04T19:01:15.600Z,93.27
2022-10-04T19:03:26.302Z,93.25
2022-10-04T19:05:37.725Z,93.68
2022-10-04T19:07:46.473Z,92.93
2022-10-04T19:10:08.079Z,93.58
2022-10-04T19:12:14.235Z,93.32
2022-10-04T19:14:25.047Z,93.64
2022-10-04T19:16:37.201Z,93.42
2022-10-04T19:18:58.416Z,94.02
2022-10-04T19:21:08.021Z,93.67
2022-10-04T19:23:19.596Z,93.96
2022-10-04T19:25:33.315Z,93.68
2022-10-04T19:27:39.324Z,94.18
2022-10-04T19:29:57.403Z,93.46
2022-10-04T19:32:03.257Z,94.00
2022-10-04T19:34:11.598Z,94.84
2022-10-04T19:36:26.609Z,94.22
2022-10-04T19:38:55.612Z,94.27
2022-10-04T19:41:04.652Z,93.92
2022-10-04T19:43:12.010Z,94.30
2022-10-04T19:45:24.982Z,94.11
2022-10-04T19:47:40.240Z,94.11
2022-10-04T19:49:47.357Z,94.04
2022-10-04T19:51:54.448Z,94.54
2022-10-04T19:54:04.763Z,94.80
2022-10-04T19:56:10.376Z,94.34
2022-10-04T19:58:25.734Z,95.00
2022-10-04T20:00:30.157Z,94.89
2022-10-04T20:02:33.201Z,94.41
2022-10-04T20:04:37.914Z,94.60
2022-10-04T20:06:49.269Z,94.19
2022-10-04T20:08:59.365Z,94.40
2022-10-04T20:11:16.047Z,94.91
2022-10-04T20:13:23.554Z,95.11
2022-10-04T20:15:46.713Z,93.95
2022-10-04T20:17:50.929Z,95.30
2022-10-04T20:19:54.017Z,95.18
2022-10-04T20:21:58.045Z,94.78
2022-10-04T20:24:01.614Z,94.93
2022-10-04T20:26:06.174Z,94.41
2022-10-04T20:28:09.437Z,94.50
2022-10-04T20:30:14.359Z,94.23
2022-10-04T20:32:50.752Z,94.04
2022-10-04T20:34:55.656Z,94.47
2022-10-04T20:36:58.801Z,95.24
2022-10-04T20:39:03.027Z,94.29
2022-10-04T20:41:06.216Z,94.84
2022-10-04T20:43:30.087Z,95.70
2022-10-04T20:45:33.243Z,95.69
2022-10-04T20:47:39.774Z,94.85
2022-10-04T20:49:44.976Z,94.82
2022-10-04T20:51:50.969Z,95.56
2022-10-04T20:53:54.208Z,94.61
2022-10-04T20:56:11.938Z,95.19
2022-10-04T20:58:26.570Z,95.49
2022-10-04T21:00:34.419Z,94.38
2022-10-04T21:02:37.623Z,95.79
2022-10-04T21:04:44.162Z,95.17
2022-10-04T21:06:55.165Z,95.34
2022-10-04T21:08:58.222Z,95.00
2022-10-04T21:11:23.803Z,94.53
2022-10-04T21:13:54.742Z,95.76
2022-10-04T21:15:57.807Z,95.24
2022-10-04T21:18:03.133Z,96.16
2022-10-04T21:20:07.229Z,95.45
2022-10-04T21:22:12.503Z,95.19
2022-10-04T21:24:36.367Z,95.02
2022-10-04T21:26:39.469Z,95.14
2022-10-04T21:28:42.788Z,94.55
2022-10-04T21:30:45.981Z,96.08
2022-10-04T21:32:49.238Z,96.03
2022-10-04T21:34:54.429Z,95.72
2022-10-04T21:36:58.742Z,96.56
2022-10-04T21:39:03.177Z,94.51
2022-10-04T21:41:06.584Z,94.66
2022-10-04T21:43:09.602Z,95.81
2022-10-04T21:45:12.643Z,96.80
2022-10-04T21:47:15.880Z,96.43
2022-10-04T21:49:18.981Z,95.65
2022-10-04T21:51:21.961Z,95.34
2022-10-04T21:53:24.998Z,94.50
2022-10-04T21:55:29.398Z,96.14
2022-10-04T21:57:35.676Z,95.16
2022-10-04T21:59:39.111Z,95.96
2022-10-04T22:01:42.073Z,94.52
2022-10-04T22:03:45.083Z,94.30
2022-10-04T22:05:48.116Z,96.18
2022-10-04T22:07:51.158Z,95.97
2022-10-04T22:09:54.082Z,94.47
2022-10-04T22:11:58.420Z,96.51
2022-10-04T22:14:01.582Z,96.21
2022-10-04T22:16:04.997Z,95.90
2022-10-04T22:18:08.185Z,95.75
2022-10-04T22:20:11.168Z,96.20
2022-10-04T22:22:15.933Z,95.29
2022-10-04T22:24:20.533Z,95.15
2022-10-04T22:26:24.403Z,94.38
2022-10-04T22:28:30.816Z,94.72
2022-10-04T22:30:34.343Z,95.39
2022-10-04T22:32:39.044Z,94.62
2022-10-04T22:34:42.007Z,95.66
2022-10-04T22:36:46.081Z,94.77
2022-10-04T22:38:52.323Z,95.19
2022-10-04T22:40:55.371Z,95.62
2022-10-04T22:43:00.658Z,95.96
2022-10-04T22:45:09.417Z,96.65
2022-10-04T22:47:14.344Z,94.51
2022-10-04T22:49:19.679Z,96.26
2022-10-04T22:51:22.713Z,95.12
2022-10-04T22:53:25.851Z,95.50
2022-10-04T22:55:28.912Z,95.14
2022-10-04T22:57:32.338Z,95.53
2022-10-04T22:59:37.051Z,95.57
2022-10-04T23:01:41.638Z,94.66
2022-10-04T23:03:46.736Z,94.70
2022-10-04T23:05:49.736Z,94.99
2022-10-04T23:07:52.742Z,94.06
2022-10-04T23:09:55.726Z,95.78
2022-10-04T23:11:58.792Z,94.36
2022-10-04T23:14:02.009Z,94.42
2022-10-04T23:16:12.608Z,94.25
2022-10-04T23:18:18.259Z,95.35
2022-10-04T23:20:21.609Z,94.36
2022-10-04T23:22:28.024Z,94.21
2022-10-04T23:24:31.750Z,95.29
2022-10-04T23:26:39.201Z,94.61
2022-10-04T23:28:42.273Z,96.20
2022-10-04T23:30:46.500Z,95.71
2022-10-04T23:32:51.048Z,96.24
2022-10-04T23:34:57.045Z,95.49
2022-10-04T23:37:00.147Z,95.69
2022-10-04T23:39:03.214Z,94.42
2022-10-04T23:41:10.559Z,94.10
2022-10-04T23:43:19.416Z,93.96
2022-10-04T23:45:23.423Z,95.42
2022-10-04T23:47:32.510Z,95.16
2022-10-04T23:49:35.473Z,95.73
2022-10-04T23:51:39.776Z,95.23
2022-10-04T23:53:43.763Z,94.56
2022-10-04T23:55:47.081Z,95.24
2022-10-04T23:57:50.588Z,95.88
2022-10-04T23:59:53.937Z,96.16
